createdAt,value
2022-12-16T00:01:17.929Z,3.38
2022-12-16T00:03:54.832Z,3.10
2022-12-16T00:06:26.931Z,2.88
2022-12-16T00:08:55.401Z,2.38
2022-12-16T00:11:23.680Z,2.60
2022-12-16T00:13:51.681Z,2.72
2022-12-16T00:16:21.624Z,2.92
2022-12-16T00:18:51.887Z,2.53
2022-12-16T00:21:20.943Z,3.85
2022-12-16T00:23:49.245Z,3.05
2022-12-16T00:26:17.451Z,3.15
2022-12-16T00:28:45.659Z,3.42
2022-12-16T00:31:14.087Z,3.65
2022-12-16T00:33:42.281Z,3.22
2022-12-16T00:36:10.732Z,3.05
2022-12-16T00:38:38.841Z,3.20
2022-12-16T00:41:08.723Z,2.92
2022-12-16T00:43:36.753Z,3.42
2022-12-16T00:46:05.501Z,2.50
2022-12-16T00:48:34.270Z,2.30
2022-12-16T00:51:02.665Z,2.55
2022-12-16T00:53:31.065Z,2.33
2022-12-16T00:56:09.619Z,2.05
2022-12-16T00:58:38.156Z,1.90
2022-12-16T01:01:06.949Z,1.75
2022-12-16T01:03:35.820Z,1.83
2022-12-16T01:06:15.708Z,2.15
2022-12-16T01:08:49.000Z,2.38
2022-12-16T01:13:49.649Z,1.90
2022-12-16T01:16:18.103Z,1.70
2022-12-16T01:18:46.759Z,1.83
2022-12-16T01:21:15.968Z,1.40
2022-12-16T01:23:43.888Z,1.48
2022-12-16T01:26:16.980Z,1.60
2022-12-16T01:28:45.371Z,1.58
2022-12-16T01:31:16.841Z,1.58
2022-12-16T01:33:44.990Z,1.30
2022-12-16T01:36:13.280Z,1.52
2022-12-16T01:38:44.413Z,1.42
2022-12-16T01:41:15.700Z,2.03
2022-12-16T01:43:45.773Z,1.33
2022-12-16T01:46:13.940Z,1.40
2022-12-16T01:49:02.850Z,1.63
2022-12-16T01:51:38.581Z,1.38
2022-12-16T01:57:28.741Z,2.22
2022-12-16T01:59:58.070Z,2.05
2022-12-16T02:02:28.275Z,2.65
2022-12-16T02:05:15.499Z,2.60
2022-12-16T02:07:43.341Z,2.85
2022-12-16T02:13:24.823Z,3.20
2022-12-16T02:16:17.354Z,3.20
2022-12-16T02:19:18.260Z,3.00
2022-12-16T02:22:22.221Z,3.72
2022-12-16T02:25:43.645Z,3.30
2022-12-16T02:31:35.800Z,2.67
2022-12-16T02:34:04.020Z,3.30
2022-12-16T02:36:41.020Z,2.47
2022-12-16T02:39:37.968Z,1.98
2022-12-16T02:42:26.740Z,1.98
2022-12-16T02:48:15.395Z,1.80
2022-12-16T02:50:51.541Z,1.30
2022-12-16T02:53:21.101Z,1.30
2022-12-16T02:56:01.253Z,1.95
2022-12-16T02:58:41.330Z,1.75
2022-12-16T03:04:37.459Z,3.03
2022-12-16T03:07:10.731Z,3.67
2022-12-16T03:09:41.347Z,3.27
2022-12-16T03:12:16.471Z,3.40
2022-12-16T03:14:48.681Z,3.42
2022-12-16T03:20:32.100Z,3.67
2022-12-16T03:23:07.132Z,3.33
2022-12-16T03:25:38.970Z,3.53
2022-12-16T03:28:17.152Z,3.85
2022-12-16T03:30:52.222Z,4.00
2022-12-16T03:33:29.385Z,3.83
2022-12-16T03:36:22.771Z,3.35
2022-12-16T03:38:52.099Z,3.30
2022-12-16T03:41:22.191Z,3.65
2022-12-16T03:43:50.870Z,4.40
2022-12-16T03:46:18.989Z,3.80
2022-12-16T03:48:50.090Z,4.40
2022-12-16T03:54:24.510Z,4.60
2022-12-16T03:56:52.931Z,4.25
2022-12-16T03:59:20.861Z,4.70
2022-12-16T04:01:50.624Z,4.82
2022-12-16T04:04:19.313Z,4.50
2022-12-16T04:07:07.494Z,5.15
2022-12-16T04:09:38.438Z,5.15
2022-12-16T04:12:25.474Z,4.88
2022-12-16T04:15:11.789Z,4.95
2022-12-16T04:17:58.743Z,4.43
2022-12-16T04:20:51.566Z,4.13
2022-12-16T04:23:45.226Z,4.38
2022-12-16T04:26:26.324Z,5.13
2022-12-16T04:28:54.630Z,5.05
2022-12-16T04:31:22.627Z,4.60
2022-12-16T04:34:09.676Z,5.55
2022-12-16T04:36:56.491Z,5.13
2022-12-16T04:39:43.424Z,6.07
2022-12-16T04:45:53.237Z,6.82
2022-12-16T04:48:40.210Z,6.07
2022-12-16T04:51:26.563Z,7.20
2022-12-16T04:54:14.635Z,6.45
2022-12-16T04:57:01.383Z,6.63
2022-12-16T05:00:00.783Z,7.25
2022-12-16T05:02:47.198Z,7.95
2022-12-16T05:05:34.141Z,8.50
2022-12-16T05:08:20.715Z,7.80
2022-12-16T05:11:07.404Z,7.57
2022-12-16T05:13:54.174Z,8.93
2022-12-16T05:16:41.014Z,9.02
2022-12-16T05:19:31.630Z,8.68
2022-12-16T05:22:18.910Z,9.05
2022-12-16T05:25:05.567Z,8.13
2022-12-16T05:27:52.154Z,8.80
2022-12-16T05:34:01.243Z,8.98
2022-12-16T05:36:48.523Z,9.02
2022-12-16T05:39:34.682Z,9.52
2022-12-16T05:42:21.581Z,8.50
2022-12-16T05:45:08.162Z,9.43
2022-12-16T05:47:55.353Z,8.55
2022-12-16T05:50:42.142Z,8.77
2022-12-16T05:53:29.365Z,9.18
2022-12-16T05:56:15.922Z,9.77
2022-12-16T05:59:02.782Z,9.27
2022-12-16T06:01:49.579Z,9.32
2022-12-16T06:04:37.242Z,9.50
2022-12-16T06:07:23.668Z,10.02
2022-12-16T06:10:11.643Z,8.82
2022-12-16T06:12:58.221Z,9.77
2022-12-16T06:15:44.889Z,9.57
2022-12-16T06:18:31.311Z,9.73
2022-12-16T06:21:19.524Z,8.52
2022-12-16T06:24:06.083Z,10.75
2022-12-16T06:26:52.960Z,11.57
2022-12-16T06:29:41.145Z,11.50
2022-12-16T06:32:28.080Z,12.30
2022-12-16T06:35:14.632Z,11.63
2022-12-16T06:38:06.488Z,12.13
2022-12-16T06:40:53.258Z,12.80
2022-12-16T06:43:42.180Z,11.82
2022-12-16T06:46:28.810Z,13.02
2022-12-16T06:49:15.641Z,13.90
2022-12-16T06:52:02.688Z,14.65
2022-12-16T06:54:49.278Z,13.98
2022-12-16T06:57:35.947Z,13.50
2022-12-16T07:00:23.147Z,13.65
2022-12-16T07:03:09.686Z,13.90
2022-12-16T07:05:57.711Z,15.05
2022-12-16T07:08:44.374Z,14.63
2022-12-16T07:11:30.967Z,14.65
2022-12-16T07:14:17.805Z,14.85
2022-12-16T07:17:05.155Z,13.60
2022-12-16T07:19:51.774Z,13.65
2022-12-16T07:22:39.216Z,14.48
2022-12-16T07:25:26.226Z,13.57
2022-12-16T07:28:15.633Z,15.70
2022-12-16T07:31:02.627Z,15.65
2022-12-16T07:33:50.264Z,16.10
2022-12-16T07:36:37.063Z,14.88
2022-12-16T07:39:25.054Z,13.82
2022-12-16T07:42:11.615Z,14.65
2022-12-16T07:44:58.444Z,14.80
2022-12-16T07:47:44.684Z,14.35
2022-12-16T07:50:33.226Z,15.50
2022-12-16T07:53:19.664Z,14.45
2022-12-16T07:56:06.284Z,14.85
2022-12-16T07:58:52.843Z,13.98
2022-12-16T08:01:42.645Z,13.70
2022-12-16T08:04:29.367Z,13.50
2022-12-16T08:07:16.245Z,15.77
2022-12-16T08:10:02.744Z,14.40
2022-12-16T08:12:49.493Z,13.48
2022-12-16T08:15:36.025Z,14.30
2022-12-16T08:18:24.114Z,14.05
2022-12-16T08:21:10.864Z,13.27
2022-12-16T08:23:58.639Z,14.32
2022-12-16T08:26:45.288Z,13.77
2022-12-16T08:29:44.350Z,12.45
2022-12-16T08:32:35.737Z,13.35
2022-12-16T08:35:22.638Z,12.82
2022-12-16T08:38:14.107Z,12.20
2022-12-16T08:41:02.487Z,14.43
2022-12-16T08:43:53.938Z,15.32
2022-12-16T08:46:43.102Z,15.77
2022-12-16T08:49:29.778Z,13.38
2022-12-16T08:52:16.387Z,13.80
2022-12-16T08:55:02.827Z,14.15
2022-12-16T08:57:49.688Z,16.20
2022-12-16T09:00:36.567Z,14.95
2022-12-16T09:03:24.021Z,13.85
2022-12-16T09:06:10.782Z,13.73
2022-12-16T09:08:58.487Z,13.25
2022-12-16T09:11:45.188Z,12.85
2022-12-16T09:14:32.305Z,12.32
2022-12-16T09:17:18.538Z,12.63
2022-12-16T09:20:06.200Z,11.75
2022-12-16T09:22:52.768Z,11.75
2022-12-16T09:25:42.061Z,9.95
2022-12-16T09:28:28.288Z,10.73
2022-12-16T09:31:31.904Z,9.32
2022-12-16T09:34:18.298Z,10.55
2022-12-16T09:37:05.080Z,10.30
2022-12-16T09:39:51.698Z,8.90
2022-12-16T09:42:52.019Z,9.07
2022-12-16T09:46:05.921Z,9.85
2022-12-16T09:49:01.659Z,9.38
2022-12-16T09:51:48.728Z,9.07
2022-12-16T09:54:42.472Z,8.65
2022-12-16T09:57:29.115Z,10.10
2022-12-16T10:00:23.122Z,9.95
2022-12-16T10:03:09.962Z,9.23
2022-12-16T10:06:26.515Z,9.02
2022-12-16T10:09:24.990Z,7.45
2022-12-16T10:12:25.470Z,7.32
2022-12-16T10:15:23.689Z,7.63
2022-12-16T10:18:10.459Z,7.55
2022-12-16T10:21:09.198Z,7.25
2022-12-16T10:24:33.908Z,8.38
2022-12-16T10:27:33.894Z,6.73
2022-12-16T10:30:22.872Z,8.35
2022-12-16T10:33:09.830Z,8.07
2022-12-16T10:36:00.670Z,7.10
2022-12-16T10:38:57.560Z,7.85
2022-12-16T10:41:52.908Z,7.30
2022-12-16T10:44:48.219Z,7.93
2022-12-16T10:47:36.000Z,8.20
2022-12-16T10:50:22.800Z,7.50
2022-12-16T10:53:33.197Z,7.53
2022-12-16T10:56:33.268Z,7.18
2022-12-16T10:59:24.587Z,6.53
2022-12-16T11:02:24.076Z,6.85
2022-12-16T11:05:11.210Z,7.15
2022-12-16T11:08:11.370Z,7.10
2022-12-16T11:11:00.954Z,6.00
2022-12-16T11:13:51.019Z,5.10
2022-12-16T11:16:43.675Z,7.03
2022-12-16T11:19:41.097Z,8.02
2022-12-16T11:22:41.199Z,8.48
2022-12-16T11:25:36.982Z,8.27
2022-12-16T11:28:36.535Z,8.82
2022-12-16T11:31:31.875Z,9.10
2022-12-16T11:34:21.767Z,9.23
2022-12-16T11:37:11.050Z,10.57
2022-12-16T11:39:58.611Z,10.65
2022-12-16T11:42:50.598Z,10.20
2022-12-16T11:45:40.225Z,10.60
2022-12-16T11:48:41.526Z,9.85
2022-12-16T11:51:32.502Z,11.93
2022-12-16T11:54:58.017Z,9.38
2022-12-16T11:57:59.927Z,10.07
2022-12-16T12:00:47.615Z,10.68
2022-12-16T12:03:43.401Z,10.65
2022-12-16T12:06:51.318Z,9.82
2022-12-16T12:09:46.207Z,10.20
2022-12-16T12:12:49.576Z,9.85
2022-12-16T12:16:05.535Z,10.02
2022-12-16T12:19:03.953Z,8.93
2022-12-16T12:22:00.821Z,8.88
2022-12-16T12:24:58.190Z,10.02
2022-12-16T12:28:18.315Z,10.48
2022-12-16T12:31:18.257Z,10.35
2022-12-16T12:34:38.486Z,9.63
2022-12-16T12:37:36.757Z,10.57
2022-12-16T12:40:51.077Z,10.38
2022-12-16T12:43:57.306Z,9.02
2022-12-16T12:47:17.797Z,9.40
2022-12-16T12:50:29.009Z,9.35
2022-12-16T12:53:34.600Z,9.00
2022-12-16T12:56:37.848Z,8.43
2022-12-16T12:59:41.777Z,8.15
2022-12-16T13:02:38.958Z,8.07
2022-12-16T13:05:34.146Z,8.57
2022-12-16T13:08:51.587Z,14.77
2022-12-16T13:11:40.575Z,12.23
2022-12-16T13:14:51.848Z,12.30
2022-12-16T13:17:41.771Z,8.60
2022-12-16T13:20:57.694Z,9.07
2022-12-16T13:23:47.674Z,8.52
2022-12-16T13:26:36.581Z,7.82
2022-12-16T13:29:41.839Z,8.63
2022-12-16T13:32:28.240Z,9.88
2022-12-16T13:35:27.184Z,8.32
2022-12-16T13:38:19.340Z,10.55
2022-12-16T13:41:20.017Z,8.57
2022-12-16T13:44:19.391Z,10.25
2022-12-16T13:47:13.137Z,10.18
2022-12-16T13:50:10.985Z,10.55
2022-12-16T13:53:03.441Z,9.90
2022-12-16T13:55:56.927Z,11.57
2022-12-16T13:58:57.852Z,12.20
2022-12-16T14:01:55.741Z,11.27
2022-12-16T14:04:48.887Z,11.30
2022-12-16T14:07:41.177Z,11.55
2022-12-16T14:10:44.636Z,11.82
2022-12-16T14:13:41.788Z,10.27
2022-12-16T14:16:33.334Z,9.65
2022-12-16T14:19:33.728Z,10.15
2022-12-16T14:23:47.309Z,13.18
2022-12-16T14:26:31.836Z,10.38
2022-12-16T14:29:21.118Z,11.48
2022-12-16T14:32:07.400Z,12.05
2022-12-16T14:34:56.316Z,11.77
2022-12-16T14:37:53.320Z,19.45
2022-12-16T14:40:48.659Z,13.48
2022-12-16T14:43:39.547Z,14.18
2022-12-16T14:46:50.737Z,12.40
2022-12-16T14:49:51.147Z,12.63
2022-12-16T14:52:46.850Z,11.90
2022-12-16T14:55:37.038Z,12.52
2022-12-16T14:58:36.047Z,12.95
2022-12-16T15:01:35.033Z,13.10
2022-12-16T15:04:27.790Z,12.82
2022-12-16T15:07:14.993Z,12.45
2022-12-16T15:10:09.597Z,12.10
2022-12-16T15:13:04.698Z,13.20
2022-12-16T15:15:57.538Z,14.43
2022-12-16T15:18:51.071Z,13.55
2022-12-16T15:21:38.227Z,11.55
2022-12-16T15:24:29.767Z,12.45
2022-12-16T15:27:52.868Z,12.82
2022-12-16T15:30:53.721Z,13.68
2022-12-16T15:33:44.530Z,17.48
2022-12-16T15:36:37.498Z,13.63
2022-12-16T15:39:46.051Z,13.30
2022-12-16T15:42:39.638Z,14.50
2022-12-16T15:45:49.842Z,14.00
2022-12-16T15:48:42.003Z,14.98
2022-12-16T15:51:47.357Z,14.33
2022-12-16T15:54:42.878Z,14.63
2022-12-16T15:57:52.922Z,16.33
2022-12-16T16:00:45.563Z,15.40
2022-12-16T16:03:58.346Z,15.90
2022-12-16T16:06:45.898Z,14.32
2022-12-16T16:09:33.594Z,15.35
2022-12-16T16:12:20.462Z,14.80
2022-12-16T16:15:08.503Z,16.48
2022-12-16T16:17:55.093Z,15.85
2022-12-16T16:20:42.152Z,15.13
2022-12-16T16:23:29.622Z,16.20
2022-12-16T16:26:16.872Z,15.98
2022-12-16T16:29:03.401Z,16.70
2022-12-16T16:31:50.311Z,16.38
2022-12-16T16:34:36.842Z,16.40
2022-12-16T16:37:32.829Z,18.17
2022-12-16T16:40:20.559Z,16.55
2022-12-16T16:43:07.404Z,18.15
2022-12-16T16:45:54.028Z,17.90
2022-12-16T16:48:41.013Z,17.63
2022-12-16T16:51:27.580Z,18.20
2022-12-16T16:54:14.931Z,18.75
2022-12-16T16:57:01.583Z,17.77
2022-12-16T16:59:48.169Z,18.48
2022-12-16T17:02:41.147Z,18.05
2022-12-16T17:05:31.145Z,17.48
2022-12-16T17:08:17.613Z,19.92
2022-12-16T17:11:06.451Z,18.88
2022-12-16T17:13:53.183Z,18.50
2022-12-16T17:16:40.216Z,17.52
2022-12-16T17:19:26.794Z,19.23
2022-12-16T17:22:13.663Z,46.20
2022-12-16T17:25:00.287Z,20.00
2022-12-16T17:27:47.402Z,17.75
2022-12-16T17:30:46.635Z,19.92
2022-12-16T17:33:35.603Z,17.70
2022-12-16T17:36:25.100Z,17.55
2022-12-16T17:39:15.842Z,18.63
2022-12-16T17:42:02.563Z,20.13
2022-12-16T17:44:49.793Z,19.98
2022-12-16T17:47:36.692Z,17.70
2022-12-16T17:50:25.043Z,20.35
2022-12-16T17:53:15.262Z,23.20
2022-12-16T17:56:02.382Z,23.20
2022-12-16T17:58:55.071Z,23.33
2022-12-16T18:01:43.654Z,25.80
2022-12-16T18:04:30.477Z,20.27
2022-12-16T18:07:17.586Z,22.20
2022-12-16T18:10:04.263Z,23.38
2022-12-16T18:12:52.183Z,23.45
2022-12-16T18:15:38.833Z,21.70
2022-12-16T18:18:25.801Z,22.13
2022-12-16T18:21:12.453Z,21.42
2022-12-16T18:23:59.833Z,20.70
2022-12-16T18:26:46.275Z,21.90
2022-12-16T18:29:34.033Z,24.52
2022-12-16T18:32:20.708Z,22.73
2022-12-16T18:35:07.633Z,24.15
2022-12-16T18:37:54.264Z,24.30
2022-12-16T18:40:41.194Z,24.58
2022-12-16T18:43:30.479Z,23.63
2022-12-16T18:46:18.377Z,24.38
2022-12-16T18:49:04.892Z,24.70
2022-12-16T18:51:51.490Z,22.52
2022-12-16T18:54:38.034Z,23.40
2022-12-16T18:57:25.945Z,24.77
2022-12-16T19:00:12.445Z,20.98
2022-12-16T19:02:59.909Z,21.95
2022-12-16T19:05:46.384Z,24.15
2022-12-16T19:08:33.472Z,22.25
2022-12-16T19:11:20.933Z,21.15
2022-12-16T19:14:09.152Z,21.05
2022-12-16T19:16:56.417Z,20.85
2022-12-16T19:19:43.885Z,21.55
2022-12-16T19:22:30.584Z,20.05
2022-12-16T19:25:17.093Z,21.15
2022-12-16T19:28:04.757Z,21.42
2022-12-16T19:30:52.615Z,21.02
2022-12-16T19:33:43.064Z,20.52
2022-12-16T19:36:29.761Z,21.67
2022-12-16T19:39:17.256Z,21.48
2022-12-16T19:42:04.231Z,20.73
2022-12-16T19:44:50.733Z,21.33
2022-12-16T19:47:38.979Z,20.75
2022-12-16T19:50:28.720Z,20.02
2022-12-16T19:53:15.903Z,21.33
2022-12-16T19:56:02.720Z,20.85
2022-12-16T19:58:49.892Z,19.80
2022-12-16T20:01:36.769Z,21.85
2022-12-16T20:04:23.311Z,20.70
2022-12-16T20:07:09.763Z,21.08
2022-12-16T20:09:56.951Z,21.90
2022-12-16T20:12:50.996Z,20.92
2022-12-16T20:15:40.006Z,21.52
2022-12-16T20:18:26.453Z,19.92
2022-12-16T20:21:13.171Z,19.88
2022-12-16T20:23:59.901Z,20.75
2022-12-16T20:26:46.526Z,19.48
2022-12-16T20:29:33.135Z,21.17
2022-12-16T20:32:21.201Z,20.10
2022-12-16T20:35:07.771Z,18.90
2022-12-16T20:37:56.188Z,19.13
2022-12-16T20:40:42.904Z,22.02
2022-12-16T20:43:31.711Z,21.13
2022-12-16T20:46:17.985Z,21.95
2022-12-16T20:49:05.258Z,19.95
2022-12-16T20:51:51.600Z,19.98
2022-12-16T20:54:38.363Z,20.60
2022-12-16T20:57:25.235Z,19.00
2022-12-16T21:00:12.193Z,18.08
2022-12-16T21:02:58.664Z,19.95
2022-12-16T21:05:46.249Z,18.80
2022-12-16T21:08:32.860Z,17.92
2022-12-16T21:11:19.620Z,17.65
2022-12-16T21:14:06.376Z,17.23
2022-12-16T21:16:53.209Z,18.95
2022-12-16T21:19:42.887Z,18.90
2022-12-16T21:22:29.609Z,17.55
2022-12-16T21:25:21.104Z,15.95
2022-12-16T21:28:16.247Z,15.95
2022-12-16T21:31:03.560Z,15.02
2022-12-16T21:33:51.564Z,12.48
2022-12-16T21:36:38.436Z,13.18
2022-12-16T21:39:28.503Z,12.82
2022-12-16T21:42:15.193Z,12.07
2022-12-16T21:45:01.825Z,10.52
2022-12-16T21:47:48.295Z,9.32
2022-12-16T21:50:35.048Z,9.75
2022-12-16T21:53:21.866Z,10.23
2022-12-16T21:56:13.895Z,9.80
2022-12-16T21:59:02.992Z,9.63
2022-12-16T22:01:50.293Z,10.57
2022-12-16T22:04:36.958Z,10.13
2022-12-16T22:07:23.639Z,9.88
2022-12-16T22:10:10.357Z,9.25
2022-12-16T22:12:57.108Z,9.48
2022-12-16T22:15:43.580Z,9.80
2022-12-16T22:18:30.103Z,10.02
2022-12-16T22:21:22.517Z,10.75
2022-12-16T22:24:10.703Z,10.90
2022-12-16T22:26:57.467Z,14.00
2022-12-16T22:29:45.337Z,13.63
2022-12-16T22:32:31.789Z,14.40
2022-12-16T22:35:18.582Z,15.30
2022-12-16T22:38:05.603Z,15.05
2022-12-16T22:40:52.740Z,15.32
2022-12-16T22:43:49.727Z,14.63
2022-12-16T22:46:36.438Z,15.52
2022-12-16T22:49:23.249Z,18.33
2022-12-16T22:52:10.111Z,19.15
2022-12-16T22:54:56.389Z,22.38
2022-12-16T22:57:43.046Z,22.10
2022-12-16T23:00:30.399Z,23.13
2022-12-16T23:03:17.702Z,23.08
2022-12-16T23:06:04.259Z,24.80
2022-12-16T23:08:51.552Z,26.08
2022-12-16T23:11:42.308Z,27.45
2022-12-16T23:14:29.041Z,28.52
2022-12-16T23:17:15.661Z,26.60
2022-12-16T23:20:02.497Z,27.70
2022-12-16T23:22:49.154Z,27.58
2022-12-16T23:25:37.445Z,27.08
2022-12-16T23:28:23.870Z,24.13
2022-12-16T23:31:12.677Z,26.10
2022-12-16T23:33:59.217Z,26.98
2022-12-16T23:36:46.967Z,26.33
2022-12-16T23:39:34.379Z,25.13
2022-12-16T23:42:20.927Z,23.63
2022-12-16T23:45:07.305Z,24.00
2022-12-16T23:47:54.216Z,22.95
2022-12-16T23:50:44.350Z,20.90
2022-12-16T23:53:32.864Z,21.98
2022-12-16T23:56:30.876Z,22.98
2022-12-16T23:59:18.297Z,20.80
